Time;durP1;ratioP1;P1;durP2;ratioP2;P2;SDS_P1;SDS_P2;PMS_P1;PMS_P2;Temp;Humidity;BMP_temperature;BMP_pressure;BME280_temperature;BME280_humidity;BME280_pressure;Samples;Min_cycle;Max_cycle;Signal;HPM_P1;HPM_P2
2023/10/23 00:02:25;;;;;;;5.35;1.58;;;7.80;99.90;;;;;;5111496;27;20027;-68
2023/10/23 00:04:51;;;;;;;5.40;1.75;;;7.80;99.90;;;;;;5132597;27;20076;-68
2023/10/23 00:07:16;;;;;;;5.43;2.00;;;7.80;99.90;;;;;;5131280;27;20094;-67
2023/10/23 00:09:42;;;;;;;5.78;1.58;;;7.80;99.90;;;;;;5132620;28;20098;-68
2023/10/23 00:12:08;;;;;;;7.25;1.95;;;7.70;99.90;;;;;;5130953;28;20106;-66
2023/10/23 00:14:34;;;;;;;4.85;1.63;;;7.70;99.90;;;;;;5132351;27;20047;-67
2023/10/23 00:17:00;;;;;;;3.85;2.05;;;7.50;99.90;;;;;;5112431;28;20095;-69
2023/10/23 00:19:27;;;;;;;7.25;1.83;;;7.40;99.90;;;;;;5110037;28;20023;-70
2023/10/23 00:21:52;;;;;;;5.60;1.80;;;7.30;99.90;;;;;;5111852;28;20043;-67
2023/10/23 00:24:18;;;;;;;6.28;1.80;;;7.30;99.90;;;;;;5110481;28;20023;-67
2023/10/23 00:26:43;;;;;;;6.38;1.77;;;7.30;99.90;;;;;;5125043;28;20341;-68
2023/10/23 00:29:09;;;;;;;4.15;1.42;;;7.30;99.90;;;;;;5130898;28;20064;-66
2023/10/23 00:31:34;;;;;;;4.38;1.65;;;7.30;99.90;;;;;;5134815;27;20031;-68
2023/10/23 00:34:00;;;;;;;4.35;1.83;;;7.20;99.90;;;;;;5118157;27;20452;-67
2023/10/23 00:36:26;;;;;;;4.95;1.55;;;7.10;99.90;;;;;;5114267;28;20024;-67
2023/10/23 00:38:51;;;;;;;3.90;1.90;;;7.10;99.90;;;;;;5115529;28;20026;-67
2023/10/23 00:41:17;;;;;;;7.85;1.88;;;7.00;99.90;;;;;;5106899;28;20036;-67
2023/10/23 00:43:43;;;;;;;4.20;1.80;;;6.90;99.90;;;;;;5115191;28;20024;-67
2023/10/23 00:46:18;;;;;;;5.10;2.38;;;6.90;99.90;;;;;;5112170;28;20103;-67
2023/10/23 00:48:45;;;;;;;4.80;1.70;;;6.80;99.90;;;;;;5103245;28;20032;-67
2023/10/23 00:51:12;;;;;;;6.70;2.38;;;;;;;;;;5129869;27;20022;-67
2023/10/23 00:53:39;;;;;;;5.60;2.10;;;;;;;;;;5135524;27;20080;-67
2023/10/23 00:56:07;;;;;;;7.63;1.80;;;;;;;;;;5135325;27;20015;-67
2023/10/23 00:58:36;;;;;;;3.05;1.60;;;;;;;;;;5135577;27;20026;-67
2023/10/23 01:01:04;;;;;;;8.15;2.05;;;;;;;;;;5136124;27;20031;-66
2023/10/23 01:03:29;;;;;;;5.90;1.83;;;;;;;;;;5127870;27;20028;-67
2023/10/23 01:05:55;;;;;;;4.95;1.80;;;;;;;;;;5113586;28;20027;-67
2023/10/23 01:08:21;;;;;;;9.88;1.95;;;;;;;;;;5114146;28;20019;-67
2023/10/23 01:10:47;;;;;;;6.45;1.65;;;;;;;;;;5115385;28;20047;-67
2023/10/23 01:13:14;;;;;;;8.23;1.88;;;;;;;;;;5113076;28;20028;-67
2023/10/23 01:15:40;;;;;;;6.07;2.05;;;;;;;;;;5114177;27;20123;-67
2023/10/23 01:18:06;;;;;;;3.25;1.70;;;;;;;;;;5114188;28;20463;-67
2023/10/23 01:20:33;;;;;;;6.82;1.90;;;;;;;;;;5115759;27;20026;-67
2023/10/23 01:22:59;;;;;;;4.45;1.75;;;;;;;;;;5114542;28;20084;-67
2023/10/23 01:25:25;;;;;;;7.32;2.25;;;;;;;;;;5114321;28;20516;-67
2023/10/23 01:27:51;;;;;;;5.45;2.00;;;;;;;;;;5113981;28;20035;-67
2023/10/23 01:30:17;;;;;;;6.13;2.05;;;;;;;;;;5114310;28;20019;-67
2023/10/23 01:32:43;;;;;;;5.85;2.30;;;;;;;;;;5114516;28;20109;-67
2023/10/23 01:35:13;;;;;;;6.72;1.98;;;;;;;;;;5111827;28;20103;-67
2023/10/23 01:37:41;;;;;;;7.70;2.40;;;;;;;;;;5114233;28;20544;-67
2023/10/23 01:40:07;;;;;;;7.28;2.10;;;;;;;;;;5114832;27;20048;-67
2023/10/23 01:42:34;;;;;;;7.30;1.90;;;;;;;;;;5112107;28;20050;-67
2023/10/23 01:45:00;;;;;;;4.88;1.77;;;;;;;;;;5103644;28;20076;-67
2023/10/23 01:47:26;;;;;;;7.35;2.30;;;;;;;;;;5113263;28;20031;-67
2023/10/23 01:49:53;;;;;;;7.15;2.00;;;;;;;;;;5114439;28;20028;-67
2023/10/23 01:52:19;;;;;;;4.68;2.00;;;;;;;;;;5095059;28;20349;-67
2023/10/23 01:54:45;;;;;;;2.65;1.45;;;;;;;;;;5119263;27;20019;-67
2023/10/23 01:57:11;;;;;;;3.42;1.48;;;;;;;;;;5113083;28;20058;-67
2023/10/23 01:59:37;;;;;;;3.65;1.60;;;;;;;;;;5114350;28;20026;-67
2023/10/23 02:02:04;;;;;;;3.33;1.70;;;;;;;;;;5114190;28;20032;-67
2023/10/23 02:04:30;;;;;;;6.63;2.20;;;;;;;;;;5112301;28;20023;-67
2023/10/23 02:06:56;;;;;;;5.20;2.00;;;;;;;;;;5114358;28;20460;-68
2023/10/23 02:09:22;;;;;;;4.07;2.35;;;;;;;;;;5112794;28;20118;-68
2023/10/23 02:11:48;;;;;;;7.63;2.13;;;;;;;;;;5114059;27;20097;-68
2023/10/23 02:14:14;;;;;;;9.05;2.55;;;;;;;;;;5111437;28;20102;-68
2023/10/23 02:16:40;;;;;;;8.80;2.85;;;;;;;;;;5114576;28;20019;-68
2023/10/23 02:19:08;;;;;;;9.35;2.25;;;;;;;;;;5107344;28;20019;-68
2023/10/23 02:21:34;;;;;;;7.05;2.10;;;;;;;;;;5114059;28;20102;-69
2023/10/23 02:24:00;;;;;;;7.78;2.40;;;;;;;;;;5113573;28;20073;-68
2023/10/23 02:26:27;;;;;;;5.80;1.83;;;;;;;;;;5116101;27;20076;-68
2023/10/23 02:28:54;;;;;;;6.07;2.08;;;;;;;;;;5116178;27;20035;-68
2023/10/23 02:31:20;;;;;;;6.43;2.00;;;;;;;;;;5113149;28;20016;-68
2023/10/23 02:33:46;;;;;;;5.47;1.98;;;;;;;;;;5112068;28;20023;-69
2023/10/23 02:36:12;;;;;;;3.17;1.70;;;;;;;;;;5113149;28;20015;-69
2023/10/23 02:38:38;;;;;;;6.07;2.05;;;;;;;;;;5112669;28;20510;-68
2023/10/23 02:41:04;;;;;;;6.70;2.03;;;;;;;;;;5113036;28;20024;-68
2023/10/23 02:43:30;;;;;;;3.45;1.88;;;;;;;;;;5110095;27;20020;-68
2023/10/23 02:46:00;;;;;;;3.50;1.50;;;;;;;;;;5113247;28;20026;-69
2023/10/23 02:48:26;;;;;;;5.32;2.00;;;;;;;;;;5112228;28;20243;-68
2023/10/23 02:50:53;;;;;;;3.63;2.03;;;;;;;;;;5113722;28;20444;-68
2023/10/23 02:53:19;;;;;;;7.90;2.65;;;;;;;;;;5111387;28;20020;-68
2023/10/23 02:55:45;;;;;;;4.32;1.92;;;;;;;;;;5113484;28;20356;-69
2023/10/23 02:58:11;;;;;;;4.50;1.90;;;;;;;;;;5110561;27;20026;-69
2023/10/23 03:00:38;;;;;;;7.60;2.00;;;;;;;;;;5113425;28;20364;-68
2023/10/23 03:03:04;;;;;;;12.45;3.17;;;;;;;;;;5109951;28;20089;-66
2023/10/23 03:05:30;;;;;;;6.38;2.50;;;;;;;;;;5110851;28;20545;-66
2023/10/23 03:07:56;;;;;;;4.53;2.17;;;;;;;;;;5112617;28;20019;-66
2023/10/23 03:10:22;;;;;;;7.35;2.22;;;;;;;;;;5111986;28;20065;-66
2023/10/23 03:12:48;;;;;;;5.93;2.50;;;;;;;;;;5112548;28;20085;-66
2023/10/23 03:15:16;;;;;;;8.27;2.13;;;;;;;;;;5109578;28;20047;-66
2023/10/23 03:17:42;;;;;;;5.68;2.40;;;;;;;;;;5112147;28;20341;-67
2023/10/23 03:20:08;;;;;;;3.63;2.20;;;;;;;;;;5112194;28;20023;-67
2023/10/23 03:22:35;;;;;;;5.60;2.30;;;;;;;;;;5112412;28;20020;-67
2023/10/23 03:25:01;;;;;;;4.65;2.50;;;;;;;;;;5112802;28;20030;-67
2023/10/23 03:27:27;;;;;;;6.15;3.03;;;;;;;;;;5111060;28;20610;-67
2023/10/23 03:29:53;;;;;;;8.48;3.00;;;;;;;;;;5112733;28;20103;-67
2023/10/23 03:32:19;;;;;;;5.28;2.25;;;;;;;;;;5107545;28;20039;-67
2023/10/23 03:34:45;;;;;;;4.43;2.20;;;;;;;;;;5110367;28;20023;-67
2023/10/23 03:37:11;;;;;;;5.28;2.45;;;;;;;;;;5111108;28;20020;-67
2023/10/23 03:39:37;;;;;;;4.95;2.40;;;;;;;;;;5112367;28;20414;-67
2023/10/23 03:42:03;;;;;;;4.78;1.98;;;;;;;;;;5112242;28;20031;-67
2023/10/23 03:44:31;;;;;;;5.80;2.10;;;;;;;;;;5111169;28;20103;-67
2023/10/23 03:47:01;;;;;;;4.78;2.13;;;;;;;;;;5112579;28;20090;-67
2023/10/23 03:49:28;;;;;;;4.85;2.30;;;5.40;99.90;;;;;;5109354;28;20056;-68
2023/10/23 03:51:53;;;;;;;3.05;1.90;;;5.30;99.90;;;;;;5112370;28;20030;-67
2023/10/23 03:54:19;;;;;;;8.05;2.30;;;5.30;99.90;;;;;;5110912;28;20015;-67
2023/10/23 03:56:45;;;;;;;8.95;2.80;;;5.30;99.90;;;;;;5112146;28;20401;-66
2023/10/23 03:59:11;;;;;;;5.07;2.33;;;5.20;99.90;;;;;;5110921;28;20363;-66
2023/10/23 04:01:36;;;;;;;7.90;2.58;;;5.20;99.90;;;;;;5110247;28;20036;-66
2023/10/23 04:04:02;;;;;;;9.38;3.08;;;5.20;99.90;;;;;;5110143;28;20127;-67
2023/10/23 04:06:27;;;;;;;7.30;2.60;;;5.20;99.90;;;;;;5111134;28;20047;-67
2023/10/23 04:08:53;;;;;;;6.72;2.83;;;5.10;99.90;;;;;;5111864;28;20026;-67
2023/10/23 04:11:19;;;;;;;9.85;3.05;;;5.10;99.90;;;;;;5111398;28;20110;-67
2023/10/23 04:13:44;;;;;;;6.63;2.78;;;5.10;99.90;;;;;;5111167;27;20024;-67
2023/10/23 04:16:10;;;;;;;5.95;2.50;;;5.10;99.90;;;;;;5111236;28;20020;-67
2023/10/23 04:18:36;;;;;;;9.93;2.80;;;5.00;99.90;;;;;;5111421;28;20030;-67
2023/10/23 04:21:05;;;;;;;6.65;2.92;;;5.00;99.90;;;;;;5110155;28;20038;-68
2023/10/23 04:23:32;;;;;;;4.70;2.70;;;5.00;99.90;;;;;;5111324;28;20042;-68
2023/10/23 04:25:57;;;;;;;6.00;2.72;;;5.00;99.90;;;;;;5111650;28;20480;-67
2023/10/23 04:28:23;;;;;;;6.38;3.35;;;5.00;99.90;;;;;;5110679;28;20019;-67
2023/10/23 04:30:49;;;;;;;7.95;3.28;;;5.00;99.90;;;;;;5111317;28;20113;-68
2023/10/23 04:33:19;;;;;;;4.18;2.90;;;5.00;99.90;;;;;;5110767;28;20106;-68
2023/10/23 04:35:45;;;;;;;8.05;3.08;;;5.00;99.90;;;;;;5110218;28;20113;-67
2023/10/23 04:38:10;;;;;;;7.10;2.92;;;5.00;99.90;;;;;;5109771;28;20443;-67
2023/10/23 04:40:36;;;;;;;8.73;3.00;;;5.00;99.90;;;;;;5109506;28;20020;-68
2023/10/23 04:43:02;;;;;;;5.90;3.75;;;5.00;99.90;;;;;;5111120;28;20043;-67
2023/10/23 04:45:28;;;;;;;10.38;3.35;;;5.00;99.90;;;;;;5111075;28;20024;-67
2023/10/23 04:47:53;;;;;;;8.77;3.10;;;5.00;99.90;;;;;;5110905;28;20038;-68
2023/10/23 04:50:19;;;;;;;11.95;3.75;;;5.00;99.90;;;;;;5105514;28;20024;-67
2023/10/23 04:52:44;;;;;;;4.68;3.13;;;5.00;99.90;;;;;;5093097;28;20072;-67
2023/10/23 04:55:10;;;;;;;5.10;3.42;;;5.00;99.90;;;;;;5110821;28;20094;-67
2023/10/23 04:57:35;;;;;;;9.88;4.00;;;5.00;99.90;;;;;;5110947;28;20530;-67
2023/10/23 05:00:02;;;;;;;8.43;3.42;;;4.90;99.90;;;;;;5111357;28;20022;-67
2023/10/23 05:02:28;;;;;;;8.52;3.97;;;4.90;99.90;;;;;;5103334;28;20038;-67
2023/10/23 05:04:53;;;;;;;7.55;4.43;;;4.90;99.90;;;;;;5111644;28;20012;-67
2023/10/23 05:07:19;;;;;;;9.18;4.30;;;4.90;99.90;;;;;;5110374;28;20456;-67
2023/10/23 05:09:44;;;;;;;8.65;3.72;;;5.00;99.90;;;;;;5108146;28;20024;-66
2023/10/23 05:12:10;;;;;;;8.60;4.07;;;5.00;99.90;;;;;;5088637;28;20073;-67
2023/10/23 05:14:35;;;;;;;8.52;3.50;;;5.00;99.90;;;;;;5111099;27;20036;-67
2023/10/23 05:17:01;;;;;;;7.75;3.40;;;5.00;99.90;;;;;;5112789;28;20533;-68
2023/10/23 05:19:27;;;;;;;10.55;4.82;;;5.00;99.90;;;;;;5114014;28;20023;-70
2023/10/23 05:21:52;;;;;;;7.93;4.75;;;5.00;99.90;;;;;;5114468;28;20035;-67
2023/10/23 05:24:18;;;;;;;7.50;4.60;;;5.00;99.90;;;;;;5111896;28;20022;-67
2023/10/23 05:26:43;;;;;;;11.40;4.07;;;5.10;99.90;;;;;;5112972;28;20367;-68
2023/10/23 05:29:09;;;;;;;6.30;3.80;;;5.10;99.90;;;;;;5113695;28;20024;-67
2023/10/23 05:31:34;;;;;;;10.85;4.45;;;5.20;99.90;;;;;;5112880;28;20031;-68
2023/10/23 05:34:00;;;;;;;10.90;3.85;;;5.20;99.90;;;;;;5114033;28;20051;-67
2023/10/23 05:36:26;;;;;;;9.05;3.85;;;5.20;99.90;;;;;;5102373;28;20107;-67
2023/10/23 05:38:52;;;;;;;9.55;3.83;;;5.20;99.90;;;;;;5106778;28;20126;-67
2023/10/23 05:41:17;;;;;;;8.82;3.78;;;5.20;99.90;;;;;;5106690;28;20023;-70
2023/10/23 05:43:44;;;;;;;6.68;3.88;;;5.20;99.90;;;;;;5112115;28;20024;-67
2023/10/23 05:46:09;;;;;;;8.07;4.10;;;5.10;99.90;;;;;;5092194;28;20019;-67
2023/10/23 05:48:36;;;;;;;7.82;3.75;;;5.10;99.90;;;;;;5113219;28;20463;-67
2023/10/23 05:51:04;;;;;;;14.70;4.82;;;5.00;99.90;;;;;;5113795;28;20028;-67
2023/10/23 05:53:30;;;;;;;9.98;5.35;;;5.00;99.90;;;;;;5112770;28;20099;-68
2023/10/23 05:56:06;;;;;;;12.77;5.07;;;5.00;99.90;;;;;;5112570;28;20024;-67
2023/10/23 05:58:35;;;;;;;13.65;5.05;;;5.10;99.90;;;;;;5111318;28;20028;-67
2023/10/23 06:01:05;;;;;;;8.35;4.53;;;5.20;99.90;;;;;;5113977;28;20345;-67
2023/10/23 06:03:31;;;;;;;11.57;4.85;;;5.20;99.90;;;;;;5111965;28;20394;-67
2023/10/23 06:05:57;;;;;;;10.32;4.32;;;5.40;99.90;;;;;;5108528;28;20046;-67
2023/10/23 06:08:22;;;;;;;9.00;4.28;;;5.40;99.90;;;;;;5110970;28;20028;-68
2023/10/23 06:10:48;;;;;;;14.90;4.38;;;5.40;99.90;;;;;;5107480;28;20094;-67
2023/10/23 06:13:13;;;;;;;6.63;3.95;;;5.30;99.90;;;;;;5101203;28;20024;-67
2023/10/23 06:15:39;;;;;;;6.50;3.88;;;5.30;99.90;;;;;;5116938;27;20043;-67
2023/10/23 06:18:05;;;;;;;7.40;3.97;;;5.20;99.90;;;;;;5129707;27;20054;-67
2023/10/23 06:20:32;;;;;;;11.43;4.57;;;5.20;99.90;;;;;;5113727;27;20039;-67
2023/10/23 06:22:58;;;;;;;11.32;4.30;;;5.10;99.90;;;;;;5133526;27;20035;-68
2023/10/23 06:25:24;;;;;;;8.00;5.30;;;5.10;99.90;;;;;;5133619;27;20024;-68
2023/10/23 06:27:50;;;;;;;12.90;5.88;;;5.10;99.90;;;;;;5128420;27;20023;-68
2023/10/23 06:30:15;;;;;;;11.35;5.78;;;5.10;99.90;;;;;;5132853;27;20372;-68
2023/10/23 06:32:41;;;;;;;11.85;5.80;;;5.20;99.90;;;;;;5133729;27;20023;-68
2023/10/23 06:35:07;;;;;;;9.68;5.40;;;5.30;99.90;;;;;;5133290;27;20364;-67
2023/10/23 06:37:32;;;;;;;10.07;4.90;;;5.30;99.90;;;;;;5133737;27;20110;-67
2023/10/23 06:39:58;;;;;;;11.07;5.60;;;5.40;99.90;;;;;;5133804;27;20022;-70
2023/10/23 06:42:27;;;;;;;9.93;5.30;;;5.40;99.90;;;;;;5130951;27;20036;-68
2023/10/23 06:44:52;;;;;;;11.98;5.50;;;5.40;99.90;;;;;;5125189;27;20035;-67
2023/10/23 06:47:18;;;;;;;10.95;4.68;;;5.40;99.90;;;;;;5128078;27;20011;-69
2023/10/23 06:49:44;;;;;;;8.23;5.47;;;5.50;99.90;;;;;;5123395;27;20015;-68
2023/10/23 06:52:10;;;;;;;10.50;5.55;;;5.60;99.90;;;;;;5131983;27;20372;-67
2023/10/23 06:54:35;;;;;;;8.40;5.35;;;5.70;99.90;;;;;;5121797;27;20027;-68
2023/10/23 06:57:06;;;;;;;11.85;5.50;;;5.80;99.90;;;;;;5126915;27;20023;-66
2023/10/23 06:59:41;;;;;;;16.67;5.00;;;5.90;99.90;;;;;;5122183;27;20380;-67
2023/10/23 07:02:06;;;;;;;13.00;5.00;;;6.00;99.90;;;;;;5115432;27;20031;-67
2023/10/23 07:04:32;;;;;;;11.40;5.00;;;6.20;99.90;;;;;;5121495;27;20042;-67
2023/10/23 07:06:58;;;;;;;13.93;5.75;;;6.20;99.90;;;;;;5131081;27;20026;-67
2023/10/23 07:09:23;;;;;;;9.00;5.22;;;6.40;99.90;;;;;;5122274;27;20210;-67
2023/10/23 07:11:52;;;;;;;10.18;5.15;;;6.40;99.90;;;;;;5120832;27;20024;-67
2023/10/23 07:14:18;;;;;;;16.80;6.22;;;6.50;99.90;;;;;;5122003;27;20510;-67
2023/10/23 07:16:45;;;;;;;16.88;5.30;;;6.60;99.90;;;;;;5112843;27;20081;-67
2023/10/23 07:19:11;;;;;;;12.98;5.50;;;6.60;99.90;;;;;;5123098;27;20444;-67
2023/10/23 07:21:37;;;;;;;11.18;5.05;;;6.80;99.90;;;;;;5119253;27;20105;-67
2023/10/23 07:24:03;;;;;;;10.23;5.65;;;6.90;99.90;;;;;;5124680;27;21267;-68
2023/10/23 07:26:29;;;;;;;11.18;6.20;;;6.90;99.90;;;;;;5131416;27;20102;-68
2023/10/23 07:28:55;;;;;;;10.75;5.65;;;7.00;99.90;;;;;;5130418;27;20098;-67
2023/10/23 07:31:21;;;;;;;14.90;5.25;;;7.10;99.90;;;;;;5122865;27;20022;-68
2023/10/23 07:33:47;;;;;;;11.75;5.15;;;7.20;99.90;;;;;;5126232;27;20012;-68
2023/10/23 07:36:13;;;;;;;11.98;5.85;;;7.30;99.90;;;;;;5122850;27;20016;-68
2023/10/23 07:38:42;;;;;;;8.07;4.75;;;7.50;99.90;;;;;;5128694;27;20023;-67
2023/10/23 07:41:08;;;;;;;10.23;5.50;;;7.60;99.90;;;;;;5117904;27;20036;-68
2023/10/23 07:43:34;;;;;;;10.52;5.93;;;7.60;99.90;;;;;;5131958;27;20019;-67
2023/10/23 07:46:08;;;;;;;7.70;5.05;;;7.80;99.90;;;;;;5129678;27;20038;-68
2023/10/23 07:48:33;;;;;;;11.95;5.90;;;7.90;99.90;;;;;;5131638;27;20012;-68
2023/10/23 07:51:00;;;;;;;9.25;5.35;;;7.90;99.90;;;;;;5130743;27;20027;-67
2023/10/23 07:53:29;;;;;;;7.72;4.20;;;8.10;99.90;;;;;;5130870;27;20030;-68
2023/10/23 07:55:55;;;;;;;8.45;4.30;;;8.20;99.90;;;;;;5121797;27;20519;-67
2023/10/23 07:58:22;;;;;;;7.38;4.18;;;8.30;99.90;;;;;;5122062;27;20119;-67
2023/10/23 08:00:51;;;;;;;8.88;3.50;;;8.50;99.90;;;;;;5123616;27;20464;-67
2023/10/23 08:03:17;;;;;;;15.95;3.58;;;8.70;99.90;;;;;;5130573;27;20456;-67
2023/10/23 08:05:42;;;;;;;9.07;3.90;;;8.90;99.90;;;;;;5131864;27;20088;-68
2023/10/23 08:08:08;;;;;;;10.18;4.55;;;9.10;99.90;;;;;;5130830;27;20389;-67
2023/10/23 08:10:33;;;;;;;9.18;4.82;;;9.20;99.90;;;;;;5111643;28;20027;-68
2023/10/23 08:12:59;;;;;;;12.45;5.50;;;9.30;99.90;;;;;;5131874;28;20027;-67
2023/10/23 08:15:25;;;;;;;8.70;4.13;;;9.40;99.90;;;;;;5130523;27;20050;-68
2023/10/23 08:17:50;;;;;;;10.23;4.85;;;9.40;99.90;;;;;;5125135;28;20022;-68
2023/10/23 08:20:17;;;;;;;13.02;4.63;;;9.40;99.90;;;;;;5118963;28;20020;-68
2023/10/23 08:22:43;;;;;;;8.75;4.50;;;9.40;99.90;;;;;;5131573;28;20196;-69
2023/10/23 08:25:08;;;;;;;9.88;4.10;;;9.40;99.90;;;;;;5122794;28;20103;-67
2023/10/23 08:27:34;;;;;;;10.90;4.05;;;9.40;99.90;;;;;;5131477;28;20451;-67
2023/10/23 08:29:59;;;;;;;9.48;4.25;;;9.40;99.90;;;;;;5128180;28;20042;-68
2023/10/23 08:32:25;;;;;;;9.73;5.13;;;9.50;99.90;;;;;;5129877;27;20038;-68
2023/10/23 08:34:53;;;;;;;8.43;3.80;;;9.40;99.90;;;;;;5128411;28;20461;-68
2023/10/23 08:37:20;;;;;;;8.77;4.05;;;9.40;99.90;;;;;;5124199;27;20416;-68
2023/10/23 08:39:45;;;;;;;7.95;3.85;;;9.50;99.90;;;;;;5128243;28;20390;-68
2023/10/23 08:42:11;;;;;;;9.45;4.40;;;9.50;99.90;;;;;;5122342;27;20027;-68
2023/10/23 08:44:36;;;;;;;8.93;4.38;;;9.60;99.90;;;;;;5128791;28;20386;-68
2023/10/23 08:47:03;;;;;;;8.85;4.32;;;9.70;99.90;;;;;;5120995;28;20041;-68
2023/10/23 08:49:29;;;;;;;10.52;4.75;;;9.80;99.90;;;;;;5126804;28;20059;-68
2023/10/23 08:51:57;;;;;;;12.93;4.85;;;;;;;;;;5126944;27;20402;-68
2023/10/23 08:54:24;;;;;;;15.10;4.25;;;;;;;;;;5132203;27;20011;-68
2023/10/23 08:56:57;;;;;;;15.93;5.28;;;;;;;;;;5120460;27;20411;-68
2023/10/23 08:59:23;;;;;;;17.30;5.13;;;;;;;;;;5133673;27;20035;-68
2023/10/23 09:01:49;;;;;;;13.23;5.15;;;;;;;;;;5120465;27;20175;-68
2023/10/23 09:04:15;;;;;;;14.55;5.68;;;;;;;;;;5134306;27;20015;-68
2023/10/23 09:06:45;;;;;;;14.93;5.13;;;;;;;;;;5114170;27;20023;-68
2023/10/23 09:09:11;;;;;;;14.55;5.10;;;;;;;;;;5130354;27;20053;-68
2023/10/23 09:11:38;;;;;;;16.58;5.85;;;;;;;;;;5118647;27;20027;-68
2023/10/23 09:14:04;;;;;;;13.63;5.55;;;;;;;;;;5119540;27;20122;-68
2023/10/23 09:16:30;;;;;;;13.27;5.53;;;;;;;;;;5134245;27;20030;-67
2023/10/23 09:18:56;;;;;;;16.88;5.28;;;;;;;;;;5118439;27;20011;-68
2023/10/23 09:21:23;;;;;;;14.80;5.65;;;;;;;;;;5132264;27;20437;-66
2023/10/23 09:23:53;;;;;;;14.07;5.88;;;;;;;;;;5134637;27;20019;-67
2023/10/23 09:26:19;;;;;;;12.07;6.22;;;;;;;;;;5133979;27;20026;-66
2023/10/23 09:28:46;;;;;;;14.43;5.57;;;;;;;;;;5134589;27;20015;-67
2023/10/23 09:31:12;;;;;;;10.57;5.28;;;;;;;;;;5125643;27;20046;-66
2023/10/23 09:33:38;;;;;;;12.18;4.78;;;;;;;;;;5124714;27;20082;-66
2023/10/23 09:36:08;;;;;;;10.68;5.35;;;;;;;;;;5129062;27;20023;-66
2023/10/23 09:38:35;;;;;;;17.70;5.45;;;;;;;;;;5130119;27;20439;-66
2023/10/23 09:41:01;;;;;;;11.13;4.65;;;;;;;;;;5121036;27;20102;-66
2023/10/23 09:43:27;;;;;;;10.32;4.85;;;;;;;;;;5133599;27;20099;-66
2023/10/23 09:45:53;;;;;;;11.57;4.82;;;;;;;;;;5123637;27;20133;-66
2023/10/23 09:48:20;;;;;;;13.32;5.70;;;;;;;;;;5128746;27;20011;-66
2023/10/23 09:50:48;;;;;;;16.55;5.13;;;;;;;;;;5125403;27;20489;-67
2023/10/23 09:53:14;;;;;;;12.35;4.68;;;;;;;;;;5129837;27;20052;-66
2023/10/23 09:55:41;;;;;;;11.73;5.35;;;;;;;;;;5126318;27;20456;-66
2023/10/23 09:58:13;;;;;;;13.95;6.18;;;;;;;;;;5129360;27;20152;-66
2023/10/23 10:00:40;;;;;;;13.52;6.28;;;;;;;;;;5119079;27;20353;-66
2023/10/23 10:03:09;;;;;;;10.05;5.15;;;;;;;;;;5128614;27;20098;-67
2023/10/23 10:05:56;;;;;;;19.52;5.50;;;;;;;;;;5114356;27;20440;-68
2023/10/23 10:08:22;;;;;;;17.83;5.63;;;;;;;;;;5121942;27;20060;-68
2023/10/23 10:10:49;;;;;;;13.30;5.95;;;;;;;;;;5132591;27;20019;-68
2023/10/23 10:13:15;;;;;;;19.27;5.93;;;;;;;;;;5121624;27;20027;-68
2023/10/23 10:15:42;;;;;;;20.52;6.00;;;;;;;;;;5130846;27;20101;-68
2023/10/23 10:18:08;;;;;;;10.75;5.10;;;;;;;;;;5132573;27;20011;-68
2023/10/23 10:20:34;;;;;;;12.93;5.45;;;;;;;;;;5118216;27;20026;-68
2023/10/23 10:23:10;;;;;;;14.15;5.07;;;;;;;;;;5128050;27;20058;-68
2023/10/23 10:25:37;;;;;;;12.13;5.70;;;;;;;;;;5128432;27;20046;-69
2023/10/23 10:28:05;;;;;;;13.85;5.20;;;;;;;;;;5128684;27;20072;-69
2023/10/23 10:30:50;;;;;;;11.27;5.57;;;;;;;;;;5128836;27;20031;-69
2023/10/23 10:33:20;;;;;;;15.45;5.63;;;;;;;;;;5128639;27;20085;-69
2023/10/23 10:35:52;;;;;;;19.27;5.85;;;;;;;;;;5127147;27;20107;-67
2023/10/23 10:38:22;;;;;;;15.00;5.93;;;;;;;;;;5129667;27;20011;-68
2023/10/23 10:41:02;;;;;;;10.98;5.43;;;;;;;;;;5126767;27;20103;-71
2023/10/23 10:43:37;;;;;;;13.05;5.45;;;;;;;;;;5131112;27;20087;-68
2023/10/23 10:46:13;;;;;;;18.05;5.43;;;;;;;;;;5122596;27;20455;-68
2023/10/23 10:48:43;;;;;;;10.70;4.60;;;;;;;;;;5118168;27;20015;-68
2023/10/23 10:51:09;;;;;;;13.25;5.05;;;;;;;;;;5126844;27;20068;-69
2023/10/23 10:53:40;;;;;;;14.23;5.90;;;;;;;;;;5132280;27;20042;-68
2023/10/23 10:56:08;;;;;;;11.80;5.65;;;;;;;;;;5124791;27;20053;-66
2023/10/23 10:58:35;;;;;;;16.50;6.00;;;;;;;;;;5131798;27;20360;-68
2023/10/23 11:01:02;;;;;;;12.90;5.38;;;;;;;;;;5126281;27;20015;-67
2023/10/23 11:03:30;;;;;;;16.63;5.10;;;;;;;;;;5122066;27;20937;-68
2023/10/23 11:05:56;;;;;;;14.85;5.93;;;;;;;;;;5108958;27;20057;-69
2023/10/23 11:08:22;;;;;;;17.45;6.75;;;;;;;;;;5119138;27;20106;-69
2023/10/23 11:10:48;;;;;;;17.40;6.45;;;12.50;99.90;;;;;;5128542;27;20051;-69
2023/10/23 11:13:14;;;;;;;17.52;6.05;;;12.60;99.90;;;;;;5119051;27;20066;-69
2023/10/23 11:15:41;;;;;;;16.60;6.18;;;12.50;99.90;;;;;;5128539;27;20357;-69
2023/10/23 11:18:07;;;;;;;13.43;5.47;;;12.50;99.90;;;;;;5120482;27;20019;-69
2023/10/23 11:20:34;;;;;;;16.60;6.63;;;12.50;99.90;;;;;;5130295;27;20088;-69
2023/10/23 11:23:00;;;;;;;16.88;5.88;;;12.50;99.90;;;;;;5120427;27;20083;-69
2023/10/23 11:25:26;;;;;;;13.25;5.70;;;12.50;99.90;;;;;;5124419;27;20282;-68
2023/10/23 11:27:52;;;;;;;13.05;6.07;;;12.60;99.90;;;;;;5123093;27;20444;-68
2023/10/23 11:30:18;;;;;;;18.88;6.05;;;12.50;99.90;;;;;;5129489;27;20015;-68
2023/10/23 11:32:44;;;;;;;17.17;6.45;;;12.60;99.90;;;;;;5115831;27;20085;-68
2023/10/23 11:35:10;;;;;;;17.52;6.55;;;12.50;99.90;;;;;;5131432;27;20070;-69
2023/10/23 11:37:42;;;;;;;16.30;5.75;;;12.50;99.90;;;;;;5128138;27;20031;-68
2023/10/23 11:40:09;;;;;;;12.00;5.35;;;12.50;99.90;;;;;;5128439;27;20059;-68
2023/10/23 11:43:02;;;;;;;8.57;5.30;;;12.50;99.90;;;;;;5123058;27;20031;-69
2023/10/23 11:45:29;;;;;;;18.33;5.50;;;12.70;99.90;;;;;;5127166;27;20034;-68
2023/10/23 11:47:55;;;;;;;13.10;5.70;;;12.80;99.90;;;;;;5127135;27;20023;-68
2023/10/23 11:50:21;;;;;;;12.30;5.60;;;12.90;99.90;;;;;;5123579;27;20015;-68
2023/10/23 11:52:48;;;;;;;15.40;5.85;;;13.00;99.90;;;;;;5117492;27;20039;-68
2023/10/23 11:55:16;;;;;;;16.45;5.93;;;13.20;99.90;;;;;;5121165;27;20099;-68
2023/10/23 11:57:50;;;;;;;16.48;5.60;;;13.20;99.90;;;;;;5127840;27;20019;-68
2023/10/23 12:00:17;;;;;;;16.08;6.05;;;13.30;99.90;;;;;;5126408;27;20094;-68
2023/10/23 12:02:45;;;;;;;10.63;6.00;;;13.30;99.90;;;;;;5120280;27;20502;-68
2023/10/23 12:05:13;;;;;;;14.55;5.50;;;13.30;99.90;;;;;;5114368;27;20023;-68
2023/10/23 12:07:43;;;;;;;17.33;6.70;;;13.30;99.90;;;;;;5114499;27;20549;-68
2023/10/23 12:10:10;;;;;;;17.05;5.82;;;13.30;99.90;;;;;;5109644;27;20340;-68
2023/10/23 12:12:41;;;;;;;12.38;6.43;;;13.30;99.90;;;;;;5114964;28;20539;-68
2023/10/23 12:15:08;;;;;;;11.48;6.00;;;13.20;99.90;;;;;;5129264;27;20118;-68
2023/10/23 12:17:34;;;;;;;15.52;6.35;;;13.10;99.90;;;;;;5124747;28;20036;-68
2023/10/23 12:20:00;;;;;;;18.50;6.13;;;13.00;99.90;;;;;;5118247;28;20015;-67
2023/10/23 12:22:25;;;;;;;12.35;4.90;;;12.90;99.90;;;;;;5119843;28;20468;-68
2023/10/23 12:24:51;;;;;;;15.68;6.57;;;12.80;99.90;;;;;;5131548;28;20038;-68
2023/10/23 12:27:17;;;;;;;12.30;6.18;;;12.70;99.90;;;;;;5124413;27;20027;-68
2023/10/23 12:29:42;;;;;;;17.27;6.47;;;12.70;99.90;;;;;;5136237;27;20102;-67
2023/10/23 12:32:08;;;;;;;13.07;6.10;;;12.60;99.90;;;;;;5134814;27;20019;-68
2023/10/23 12:34:35;;;;;;;10.93;5.55;;;12.60;99.90;;;;;;5135861;27;20025;-68
2023/10/23 12:37:01;;;;;;;11.57;5.90;;;12.60;99.90;;;;;;5125741;27;20020;-68
2023/10/23 12:39:26;;;;;;;12.48;6.45;;;12.60;99.90;;;;;;5124867;27;20015;-68
2023/10/23 12:41:52;;;;;;;14.20;6.03;;;12.60;99.90;;;;;;5126935;27;20031;-68
2023/10/23 12:44:18;;;;;;;11.20;6.05;;;12.70;99.90;;;;;;5132030;27;20448;-68
2023/10/23 12:46:43;;;;;;;17.20;6.00;;;12.80;99.90;;;;;;5135448;27;20076;-68
2023/10/23 12:49:09;;;;;;;12.25;5.63;;;12.80;99.90;;;;;;5130382;27;20431;-68
2023/10/23 12:51:34;;;;;;;14.82;5.93;;;12.90;99.90;;;;;;5130237;27;20030;-67
2023/10/23 12:54:00;;;;;;;18.10;6.50;;;13.00;99.90;;;;;;5130309;27;20023;-68
2023/10/23 12:56:26;;;;;;;16.48;7.40;;;13.00;99.90;;;;;;5125343;27;20539;-67
2023/10/23 12:58:52;;;;;;;14.65;7.07;;;13.10;99.90;;;;;;5121748;27;20076;-68
2023/10/23 13:01:18;;;;;;;19.67;6.68;;;13.10;99.90;;;;;;5131709;27;20023;-68
2023/10/23 13:03:43;;;;;;;16.35;6.57;;;13.10;99.90;;;;;;5127683;27;20102;-67
2023/10/23 13:06:09;;;;;;;12.45;6.40;;;13.10;99.90;;;;;;5132827;27;20046;-69
2023/10/23 13:08:34;;;;;;;16.27;6.22;;;13.10;99.90;;;;;;5120099;27;20444;-68
2023/10/23 13:11:01;;;;;;;16.00;5.85;;;13.20;99.90;;;;;;5135455;27;20023;-68
2023/10/23 13:13:26;;;;;;;10.18;5.15;;;13.20;99.90;;;;;;5124787;27;20200;-68
2023/10/23 13:15:52;;;;;;;13.48;5.10;;;13.00;99.90;;;;;;5134759;27;20480;-68
2023/10/23 13:18:18;;;;;;;11.57;5.13;;;13.00;99.90;;;;;;5133968;27;20041;-68
2023/10/23 13:20:43;;;;;;;8.02;4.60;;;12.90;99.90;;;;;;5135278;27;20359;-68
2023/10/23 13:23:09;;;;;;;10.90;4.78;;;12.90;99.90;;;;;;5133669;27;20027;-68
2023/10/23 13:25:37;;;;;;;15.48;5.63;;;12.90;99.90;;;;;;5135133;27;20397;-67